createdAt,value
2023-01-07T00:01:44.538Z,19033.50
2023-01-07T00:04:16.436Z,19037.56
2023-01-07T00:06:47.250Z,19049.75
2023-01-07T00:09:17.445Z,19039.59
2023-01-07T00:11:46.522Z,19025.38
2023-01-07T00:14:16.278Z,19037.56
2023-01-07T00:16:44.858Z,19019.28
2023-01-07T00:19:17.322Z,19021.31
2023-01-07T00:21:45.519Z,19023.34
2023-01-07T00:24:14.025Z,18986.75
2023-01-07T00:26:42.489Z,19027.41
2023-01-07T00:29:11.051Z,19041.63
2023-01-07T00:31:42.344Z,19019.28
2023-01-07T00:34:11.333Z,19066.00
2023-01-07T00:36:43.904Z,19072.09
2023-01-07T00:39:16.526Z,19088.34
2023-01-07T00:42:07.447Z,19074.13
2023-01-07T00:44:37.626Z,19070.06
2023-01-07T00:47:06.428Z,19070.06
2023-01-07T00:49:34.592Z,19102.56
2023-01-07T00:52:04.152Z,19074.13
2023-01-07T00:54:32.434Z,19047.72
2023-01-07T00:57:00.570Z,19043.66
2023-01-07T00:59:28.685Z,19021.31
2023-01-07T01:01:56.988Z,18986.75
2023-01-07T01:04:25.154Z,18976.59
2023-01-07T01:06:53.300Z,18990.81
2023-01-07T01:09:25.290Z,18972.53
2023-01-07T01:11:53.407Z,18994.88
2023-01-07T01:14:21.541Z,18986.75
2023-01-07T01:16:49.742Z,18990.81
2023-01-07T01:19:18.242Z,18990.81
2023-01-07T01:21:46.393Z,18958.31
2023-01-07T01:24:14.644Z,18966.44
2023-01-07T01:26:44.144Z,18972.53
2023-01-07T01:29:12.227Z,18925.81
2023-01-07T01:31:40.474Z,18931.91
2023-01-07T01:34:08.646Z,18944.09
2023-01-07T01:36:37.070Z,18940.03
2023-01-07T01:39:05.401Z,18960.34
2023-01-07T01:41:33.596Z,18948.16
2023-01-07T01:44:03.579Z,18907.50
2023-01-07T01:46:39.686Z,18915.63
2023-01-07T01:49:22.071Z,18864.84
2023-01-07T01:51:57.241Z,18917.66
2023-01-07T01:54:28.398Z,18889.22
2023-01-07T01:57:01.940Z,18895.31
2023-01-07T01:59:37.493Z,18913.59
2023-01-07T02:02:07.467Z,18879.06
2023-01-07T02:04:38.043Z,18875.00
2023-01-07T02:07:10.561Z,18909.53
2023-01-07T02:09:38.843Z,18856.72
2023-01-07T02:12:19.446Z,18840.47
2023-01-07T02:15:10.299Z,18854.69
2023-01-07T02:17:56.592Z,18844.53
2023-01-07T02:20:41.538Z,18860.78
2023-01-07T02:24:24.177Z,18850.63
2023-01-07T02:27:18.395Z,18877.03
2023-01-07T02:30:36.925Z,18866.88
2023-01-07T02:33:33.854Z,18844.53
2023-01-07T02:36:41.714Z,18858.75
2023-01-07T02:39:31.511Z,18897.34
2023-01-07T02:42:03.451Z,18907.50
2023-01-07T02:44:42.748Z,18901.41
2023-01-07T02:47:19.258Z,18899.38
2023-01-07T02:49:50.843Z,18917.66
2023-01-07T02:52:24.449Z,18923.78
2023-01-07T02:55:00.908Z,18899.38
2023-01-07T02:58:15.205Z,18927.84
2023-01-07T03:01:38.915Z,18952.22
2023-01-07T03:04:33.659Z,18964.41
2023-01-07T03:07:31.159Z,18970.50
2023-01-07T03:10:11.497Z,18954.25
2023-01-07T03:12:47.350Z,18978.63
2023-01-07T03:15:24.121Z,18974.56
2023-01-07T03:18:01.307Z,18960.34
2023-01-07T03:20:33.127Z,18966.44
2023-01-07T03:23:09.752Z,18984.72
2023-01-07T03:25:45.890Z,19023.34
2023-01-07T03:28:18.794Z,19023.34
2023-01-07T03:30:50.200Z,19025.38
2023-01-07T03:33:27.579Z,19047.72
2023-01-07T03:36:00.974Z,19021.31
2023-01-07T03:38:31.787Z,19041.63
2023-01-07T03:41:00.237Z,19037.56
2023-01-07T03:43:27.415Z,19045.69
2023-01-07T03:45:58.629Z,19033.50
2023-01-07T03:48:26.923Z,19017.25
2023-01-07T03:50:55.054Z,19037.56
2023-01-07T03:53:23.174Z,19021.31
2023-01-07T03:55:52.661Z,19023.34
2023-01-07T03:58:20.814Z,18988.78
2023-01-07T04:00:48.918Z,19011.13
2023-01-07T04:03:17.126Z,19000.97
2023-01-07T04:05:45.223Z,19009.09
2023-01-07T04:08:13.414Z,18992.84
2023-01-07T04:10:41.699Z,18980.66
2023-01-07T04:13:11.166Z,19015.19
2023-01-07T04:15:39.260Z,19029.44
2023-01-07T04:18:07.426Z,19013.16
2023-01-07T04:20:35.811Z,19045.69
2023-01-07T04:23:04.139Z,19039.59
2023-01-07T04:25:32.643Z,19027.41
2023-01-07T04:28:00.766Z,19051.78
2023-01-07T04:30:30.308Z,19076.16
2023-01-07T04:32:58.445Z,19037.56
2023-01-07T04:35:26.667Z,19094.44
2023-01-07T04:37:54.769Z,19086.31
2023-01-07T04:40:22.926Z,19108.69
2023-01-07T04:42:51.053Z,19100.53
2023-01-07T04:45:19.310Z,19106.66
2023-01-07T04:47:48.916Z,19118.84
2023-01-07T04:50:17.527Z,19110.72
2023-01-07T04:52:45.668Z,19096.47
2023-01-07T04:55:13.840Z,19108.69
2023-01-07T04:57:41.959Z,19120.88
2023-01-07T05:00:12.194Z,19092.41
2023-01-07T05:02:40.457Z,19106.66
2023-01-07T05:05:11.381Z,19110.72
2023-01-07T05:07:39.528Z,19151.34
2023-01-07T05:10:08.963Z,19098.50
2023-01-07T05:12:38.472Z,19135.09
2023-01-07T05:15:08.901Z,19139.16
2023-01-07T05:17:37.063Z,19116.81
2023-01-07T05:20:07.698Z,19120.88
2023-01-07T05:22:37.237Z,19094.44
2023-01-07T05:25:06.162Z,19108.69
2023-01-07T05:27:34.278Z,19118.84
2023-01-07T05:30:02.588Z,19090.38
2023-01-07T05:32:30.667Z,19108.69
2023-01-07T05:34:58.960Z,19094.44
2023-01-07T05:37:27.099Z,19129.00
2023-01-07T05:39:56.608Z,19131.03
2023-01-07T05:42:24.824Z,19108.69
2023-01-07T05:44:52.917Z,19145.25
2023-01-07T05:47:21.080Z,19122.91
2023-01-07T05:49:49.187Z,19135.09
2023-01-07T05:52:17.411Z,19122.91
2023-01-07T05:54:45.529Z,19120.88
2023-01-07T05:57:14.974Z,19157.44
2023-01-07T05:59:44.160Z,19149.31
2023-01-07T06:02:12.326Z,19151.34
2023-01-07T06:04:40.484Z,19155.41
2023-01-07T06:07:08.655Z,19143.22
2023-01-07T06:09:36.780Z,19102.56
2023-01-07T06:12:05.232Z,19151.34
2023-01-07T06:14:34.763Z,19139.16
2023-01-07T06:17:02.858Z,19133.06
2023-01-07T06:19:30.995Z,19102.56
2023-01-07T06:21:59.492Z,19143.22
2023-01-07T06:24:27.645Z,19074.13
2023-01-07T06:26:55.779Z,19102.56
2023-01-07T06:29:23.850Z,19092.41
2023-01-07T06:31:53.406Z,19082.25
2023-01-07T06:34:21.631Z,19066.00
2023-01-07T06:36:49.775Z,19078.19
2023-01-07T06:39:17.897Z,19076.16
2023-01-07T06:41:46.027Z,19078.19
2023-01-07T06:44:14.099Z,19094.44
2023-01-07T06:46:42.299Z,19066.00
2023-01-07T06:49:12.159Z,19068.03
2023-01-07T06:51:40.390Z,19051.78
2023-01-07T06:54:08.544Z,19047.72
2023-01-07T06:56:36.683Z,19047.72
2023-01-07T06:59:04.793Z,19023.34
2023-01-07T07:01:33.047Z,19066.00
2023-01-07T07:04:01.231Z,19041.63
2023-01-07T07:06:30.813Z,19061.94
2023-01-07T07:08:58.939Z,19043.66
2023-01-07T07:11:27.109Z,19041.63
2023-01-07T07:13:55.259Z,19037.56
2023-01-07T07:16:24.134Z,19041.63
2023-01-07T07:18:53.014Z,19015.19
2023-01-07T07:21:21.341Z,19045.69
2023-01-07T07:23:50.860Z,19023.34
2023-01-07T07:26:18.993Z,19043.66
2023-01-07T07:28:47.154Z,19019.28
2023-01-07T07:31:15.379Z,19007.06
2023-01-07T07:33:43.507Z,19049.75
2023-01-07T07:36:11.683Z,19015.19
2023-01-07T07:38:39.786Z,19037.56
2023-01-07T07:41:09.253Z,19057.88
2023-01-07T07:43:37.880Z,19029.44
2023-01-07T07:46:06.664Z,19057.88
2023-01-07T07:48:34.905Z,19049.75
2023-01-07T07:51:03.008Z,19045.69
2023-01-07T07:53:31.245Z,19082.25
2023-01-07T07:55:59.412Z,19078.19
2023-01-07T07:58:28.884Z,19104.59
2023-01-07T08:00:57.126Z,19108.69
2023-01-07T08:03:25.346Z,19094.44
2023-01-07T08:05:53.484Z,19102.56
2023-01-07T08:08:22.331Z,19092.41
2023-01-07T08:10:50.430Z,19078.19
2023-01-07T08:13:19.299Z,19106.66
2023-01-07T08:15:48.797Z,19072.09
2023-01-07T08:18:16.980Z,19114.78
2023-01-07T08:20:45.070Z,19102.56
2023-01-07T08:23:13.345Z,19104.59
2023-01-07T08:25:41.436Z,19070.06
2023-01-07T08:28:11.271Z,19090.38
2023-01-07T08:30:39.727Z,19112.75
2023-01-07T08:33:09.678Z,19072.09
2023-01-07T08:35:37.995Z,19120.88
2023-01-07T08:38:09.030Z,19139.16
2023-01-07T08:40:38.380Z,19118.84
2023-01-07T08:43:09.016Z,19151.34
2023-01-07T08:45:37.272Z,19118.84
2023-01-07T08:48:06.452Z,19124.94
2023-01-07T08:50:36.173Z,19126.97
2023-01-07T08:53:04.293Z,19183.84
2023-01-07T08:55:32.362Z,19171.66
2023-01-07T08:58:00.566Z,19175.72
2023-01-07T09:00:29.233Z,19187.91
2023-01-07T09:02:57.434Z,19185.88
2023-01-07T09:05:25.577Z,19265.13
2023-01-07T09:07:56.772Z,19244.81
2023-01-07T09:10:25.486Z,19236.69
2023-01-07T09:12:53.650Z,19265.13
2023-01-07T09:15:21.789Z,19246.84
2023-01-07T09:17:49.971Z,19216.38
2023-01-07T09:20:18.468Z,19265.13
2023-01-07T09:22:46.950Z,19287.50
2023-01-07T09:25:16.588Z,19285.47
2023-01-07T09:27:45.685Z,19320.00
2023-01-07T09:30:14.760Z,19287.50
2023-01-07T09:32:44.404Z,19281.41
2023-01-07T09:35:13.070Z,19303.75
2023-01-07T09:37:41.614Z,19283.44
2023-01-07T09:40:22.610Z,19289.53
2023-01-07T09:43:00.448Z,19301.72
2023-01-07T09:45:34.036Z,19342.34
2023-01-07T09:48:07.975Z,19309.84
2023-01-07T09:50:53.318Z,19330.16
2023-01-07T09:53:28.601Z,19391.13
2023-01-07T09:56:11.872Z,19332.19
2023-01-07T09:58:46.155Z,19429.75
2023-01-07T10:01:27.402Z,19391.13
2023-01-07T10:04:16.495Z,19380.97
2023-01-07T10:06:57.923Z,19429.75
2023-01-07T10:09:44.354Z,19411.44
2023-01-07T10:12:27.166Z,19456.16
2023-01-07T10:15:36.839Z,19433.81
2023-01-07T10:18:25.146Z,19448.03
2023-01-07T10:21:10.645Z,19456.16
2023-01-07T10:23:43.285Z,19460.22
2023-01-07T10:26:29.904Z,19462.25
2023-01-07T10:29:07.857Z,19429.75
2023-01-07T10:31:37.911Z,19470.38
2023-01-07T10:34:15.253Z,19423.66
2023-01-07T10:37:00.974Z,19504.94
2023-01-07T10:39:46.535Z,19464.28
2023-01-07T10:42:23.825Z,19502.91
2023-01-07T10:45:24.401Z,19458.19
2023-01-07T10:48:21.249Z,19519.16
2023-01-07T10:51:07.288Z,19476.47
2023-01-07T10:53:58.898Z,19435.84
2023-01-07T10:56:36.900Z,19454.13
2023-01-07T10:59:06.367Z,19395.19
2023-01-07T11:01:40.324Z,19443.97
2023-01-07T11:04:15.262Z,19415.50
2023-01-07T11:06:50.941Z,19435.84
2023-01-07T11:09:24.493Z,19407.38
2023-01-07T11:11:55.322Z,19446.00
2023-01-07T11:14:31.122Z,19407.38
2023-01-07T11:17:12.801Z,19452.09
2023-01-07T11:19:49.013Z,19450.06
2023-01-07T11:22:36.841Z,19446.00
2023-01-07T11:25:28.745Z,19456.16
2023-01-07T11:28:03.044Z,19464.28
2023-01-07T11:30:34.507Z,19454.13
2023-01-07T11:33:07.929Z,19504.94
2023-01-07T11:35:37.538Z,19535.41
2023-01-07T11:38:30.443Z,19525.25
2023-01-07T11:41:00.808Z,19525.25
2023-01-07T11:43:34.833Z,19488.69
2023-01-07T11:46:19.498Z,19561.84
2023-01-07T11:48:54.559Z,19500.88
2023-01-07T11:51:24.596Z,19517.13
2023-01-07T11:53:57.813Z,19537.44
2023-01-07T11:56:29.648Z,19519.16
2023-01-07T11:59:29.748Z,19537.44
2023-01-07T12:02:00.571Z,19606.53
2023-01-07T12:04:33.652Z,19608.56
2023-01-07T12:07:05.820Z,19620.78
2023-01-07T12:09:38.690Z,19610.59
2023-01-07T12:12:34.600Z,19606.53
2023-01-07T12:15:07.813Z,19616.72
2023-01-07T12:17:37.205Z,19673.59
2023-01-07T12:21:01.994Z,19624.84
2023-01-07T12:23:43.796Z,19612.63
2023-01-07T12:26:19.336Z,19620.78
2023-01-07T12:29:07.323Z,19635.00
2023-01-07T12:31:48.962Z,19639.06
2023-01-07T12:34:38.305Z,19620.78
2023-01-07T12:37:20.503Z,19651.25
2023-01-07T12:39:55.930Z,19626.88
2023-01-07T12:42:30.151Z,19655.31
2023-01-07T12:45:06.317Z,19620.78
2023-01-07T12:47:40.588Z,19620.78
2023-01-07T12:50:17.553Z,19598.41
2023-01-07T12:52:53.125Z,19565.91
2023-01-07T12:55:27.651Z,19649.22
2023-01-07T12:58:14.900Z,19622.81
2023-01-07T13:00:53.611Z,19624.84
2023-01-07T13:03:44.277Z,19639.06
2023-01-07T13:06:19.885Z,19600.44
2023-01-07T13:09:03.137Z,19645.16
2023-01-07T13:11:54.889Z,19647.19
2023-01-07T13:14:29.448Z,19596.38
2023-01-07T13:17:06.196Z,19567.94
2023-01-07T13:19:34.304Z,19639.06
2023-01-07T13:22:02.642Z,19616.72
2023-01-07T13:24:56.416Z,19590.28
2023-01-07T13:27:39.912Z,19565.91
2023-01-07T13:30:25.487Z,19600.44
2023-01-07T13:33:13.493Z,19610.59
2023-01-07T13:36:01.936Z,19598.41
2023-01-07T13:39:11.855Z,19561.84
2023-01-07T13:42:02.758Z,19525.25
2023-01-07T13:45:01.684Z,19531.34
2023-01-07T13:47:43.691Z,19545.56
2023-01-07T13:50:26.106Z,19551.69
2023-01-07T13:53:01.913Z,19533.38
2023-01-07T13:55:38.940Z,19574.03
2023-01-07T13:58:45.716Z,19539.47
2023-01-07T14:01:15.984Z,19549.63
2023-01-07T14:03:49.590Z,19567.94
2023-01-07T14:06:40.566Z,19551.69
2023-01-07T14:09:38.762Z,19580.13
2023-01-07T14:13:12.976Z,19582.16
2023-01-07T14:16:07.755Z,19509.00
2023-01-07T14:19:08.168Z,19555.75
2023-01-07T14:22:00.540Z,19531.34
2023-01-07T14:25:06.376Z,19519.16
2023-01-07T14:28:09.902Z,19494.78
2023-01-07T14:30:46.448Z,19533.38
2023-01-07T14:33:22.856Z,19509.00
2023-01-07T14:35:59.320Z,19480.53
2023-01-07T14:39:01.779Z,19523.22
2023-01-07T14:41:30.010Z,19502.91
2023-01-07T14:44:21.463Z,19509.00
2023-01-07T14:46:52.565Z,19488.69
2023-01-07T14:50:01.894Z,19529.31
2023-01-07T14:53:43.015Z,19492.75
2023-01-07T14:56:33.550Z,19478.50
2023-01-07T14:59:30.582Z,19498.84
2023-01-07T15:03:19.354Z,19484.59
2023-01-07T15:06:09.946Z,19509.00
2023-01-07T15:09:06.496Z,19470.38
2023-01-07T15:11:54.257Z,19494.78
2023-01-07T15:14:47.464Z,19506.97
2023-01-07T15:17:17.702Z,19553.72
2023-01-07T15:19:46.358Z,19553.72
2023-01-07T15:22:54.673Z,19525.25
2023-01-07T15:25:42.972Z,19574.03
2023-01-07T15:28:20.760Z,19511.03
2023-01-07T15:31:00.110Z,19529.31
2023-01-07T15:33:53.704Z,19576.06
2023-01-07T15:36:22.232Z,19553.72
2023-01-07T15:38:54.218Z,19551.69
2023-01-07T15:41:33.317Z,19576.06
2023-01-07T15:44:05.337Z,19553.72
2023-01-07T15:46:34.769Z,19572.00
2023-01-07T15:49:18.826Z,19515.09
2023-01-07T15:51:49.503Z,19598.41
2023-01-07T15:54:37.060Z,19600.44
2023-01-07T15:57:11.244Z,19582.16
2023-01-07T15:59:45.616Z,19529.31
2023-01-07T16:02:27.486Z,19545.56
2023-01-07T16:05:00.838Z,19561.84
2023-01-07T16:07:32.866Z,19594.34
2023-01-07T16:10:02.793Z,19567.94
2023-01-07T16:12:36.264Z,19576.06
2023-01-07T16:15:29.990Z,19567.94
2023-01-07T16:18:00.729Z,19559.81
2023-01-07T16:20:33.066Z,19529.31
2023-01-07T16:23:22.353Z,19596.38
2023-01-07T16:25:57.891Z,19555.75
2023-01-07T16:28:29.950Z,19557.78
2023-01-07T16:31:00.030Z,19569.97
2023-01-07T16:33:32.567Z,19582.16
2023-01-07T16:36:03.349Z,19553.72
2023-01-07T16:38:36.450Z,19574.03
2023-01-07T16:41:06.524Z,19537.44
2023-01-07T16:43:45.110Z,19541.50
2023-01-07T16:46:31.756Z,19547.59
2023-01-07T16:49:29.398Z,19517.13
2023-01-07T16:52:07.808Z,19525.25
2023-01-07T16:54:39.974Z,19553.72
2023-01-07T16:57:38.805Z,19527.28
2023-01-07T17:00:20.129Z,19537.44
2023-01-07T17:02:56.075Z,19521.19
2023-01-07T17:05:27.252Z,19535.41
2023-01-07T17:08:00.312Z,19545.56
2023-01-07T17:10:33.258Z,19555.75
2023-01-07T17:13:05.425Z,19547.59
2023-01-07T17:15:40.017Z,19549.63
2023-01-07T17:18:30.379Z,19565.91
2023-01-07T17:21:01.246Z,19527.28
2023-01-07T17:23:45.511Z,19533.38
2023-01-07T17:26:23.001Z,19547.59
2023-01-07T17:28:55.885Z,19517.13
2023-01-07T17:31:25.327Z,19572.00
2023-01-07T17:33:54.890Z,19598.41
2023-01-07T17:36:25.943Z,19578.09
2023-01-07T17:38:54.715Z,19590.28
2023-01-07T17:41:42.285Z,19549.63
2023-01-07T17:44:14.475Z,19608.56
2023-01-07T17:46:43.566Z,19598.41
2023-01-07T17:49:12.721Z,19590.28
2023-01-07T17:51:44.128Z,19551.69
2023-01-07T17:54:22.675Z,19572.00
2023-01-07T17:56:52.033Z,19569.97
2023-01-07T17:59:24.069Z,19610.59
2023-01-07T18:01:56.560Z,19549.63
2023-01-07T18:04:25.130Z,19525.25
2023-01-07T18:06:53.273Z,19622.81
2023-01-07T18:09:21.416Z,19618.75
2023-01-07T18:12:06.893Z,19553.72
2023-01-07T18:14:36.337Z,19610.59
2023-01-07T18:17:04.776Z,19586.22
2023-01-07T18:19:32.825Z,19622.81
2023-01-07T18:22:00.881Z,19563.88
2023-01-07T18:24:29.005Z,19586.22
2023-01-07T18:26:57.071Z,19557.78
2023-01-07T18:29:25.301Z,19549.63
2023-01-07T18:31:54.915Z,19557.78
2023-01-07T18:34:23.029Z,19535.41
2023-01-07T18:36:51.086Z,19539.47
2023-01-07T18:39:20.570Z,19559.81
2023-01-07T18:41:50.076Z,19567.94
2023-01-07T18:44:19.171Z,19547.59
2023-01-07T18:46:47.303Z,19553.72
2023-01-07T18:49:17.073Z,19545.56
2023-01-07T18:51:47.852Z,19555.75
2023-01-07T18:54:17.048Z,19549.63
2023-01-07T18:56:46.160Z,19519.16
2023-01-07T18:59:14.605Z,19569.97
2023-01-07T19:01:43.081Z,19553.72
2023-01-07T19:04:11.330Z,19574.03
2023-01-07T19:06:40.780Z,19535.41
2023-01-07T19:09:08.834Z,19500.88
2023-01-07T19:11:38.209Z,19565.91
2023-01-07T19:14:06.317Z,19563.88
2023-01-07T19:16:34.504Z,19563.88
2023-01-07T19:19:02.876Z,19541.50
2023-01-07T19:21:31.061Z,19533.38
2023-01-07T19:24:03.618Z,19537.44
2023-01-07T19:26:33.653Z,19545.56
2023-01-07T19:29:01.840Z,19509.00
2023-01-07T19:31:29.930Z,19506.97
2023-01-07T19:33:58.033Z,19498.84
2023-01-07T19:36:26.118Z,19549.63
2023-01-07T19:38:54.188Z,19502.91
2023-01-07T19:41:24.625Z,19504.94
2023-01-07T19:43:59.043Z,19468.34
2023-01-07T19:46:28.703Z,19472.41
2023-01-07T19:48:56.803Z,19464.28
2023-01-07T19:51:24.895Z,19458.19
2023-01-07T19:53:52.975Z,19419.59
2023-01-07T19:56:21.050Z,19478.50
2023-01-07T19:58:54.036Z,19439.91
2023-01-07T20:01:26.381Z,19448.03
2023-01-07T20:03:56.291Z,19464.28
2023-01-07T20:06:27.488Z,19448.03
2023-01-07T20:08:57.500Z,19460.22
2023-01-07T20:11:26.941Z,19425.69
2023-01-07T20:13:56.370Z,19397.22
2023-01-07T20:16:25.516Z,19431.78
2023-01-07T20:18:56.450Z,19421.63
2023-01-07T20:21:27.487Z,19423.66
2023-01-07T20:23:56.437Z,19452.09
2023-01-07T20:26:27.148Z,19425.69
2023-01-07T20:28:58.200Z,19433.81
2023-01-07T20:31:28.450Z,19397.22
2023-01-07T20:33:57.393Z,19417.56
2023-01-07T20:36:28.509Z,19391.13
2023-01-07T20:38:57.100Z,19376.91
2023-01-07T20:41:28.534Z,19407.38
2023-01-07T20:44:00.379Z,19374.88
2023-01-07T20:46:31.147Z,19405.34
2023-01-07T20:48:59.559Z,19397.22
2023-01-07T20:51:28.738Z,19378.94
2023-01-07T20:53:57.171Z,19336.25
2023-01-07T20:56:31.678Z,19360.66
2023-01-07T20:59:02.853Z,19372.84
2023-01-07T21:01:31.256Z,19334.22
2023-01-07T21:04:01.738Z,19387.06
2023-01-07T21:06:29.953Z,19372.84
2023-01-07T21:08:58.258Z,19372.84
2023-01-07T21:11:27.171Z,19320.00
2023-01-07T21:13:56.310Z,19342.34
2023-01-07T21:16:27.398Z,19370.81
2023-01-07T21:18:55.718Z,19322.03
2023-01-07T21:21:25.587Z,19326.09
2023-01-07T21:23:54.682Z,19336.25
2023-01-07T21:26:24.772Z,19332.19
2023-01-07T21:28:56.431Z,19336.25
2023-01-07T21:31:27.235Z,19342.34
2023-01-07T21:33:57.446Z,19338.28
2023-01-07T21:36:27.562Z,19315.94
2023-01-07T21:38:57.692Z,19317.97
2023-01-07T21:41:27.981Z,19285.47
2023-01-07T21:43:56.641Z,19287.50
2023-01-07T21:46:26.339Z,19242.78
2023-01-07T21:48:54.430Z,19267.16
2023-01-07T21:51:25.916Z,19301.72
2023-01-07T21:53:56.543Z,19275.31
2023-01-07T21:56:27.266Z,19317.97
2023-01-07T21:58:55.425Z,19326.09
2023-01-07T22:01:28.517Z,19338.28
2023-01-07T22:03:59.823Z,19324.06
2023-01-07T22:06:31.046Z,19293.59
2023-01-07T22:09:01.042Z,19315.94
2023-01-07T22:11:29.591Z,19303.75
2023-01-07T22:13:59.818Z,19309.84
2023-01-07T22:16:31.725Z,19301.72
2023-01-07T22:19:01.102Z,19291.56
2023-01-07T22:21:29.755Z,19313.91
2023-01-07T22:23:57.849Z,19279.38
2023-01-07T22:26:25.907Z,19289.53
2023-01-07T22:28:58.834Z,19334.22
2023-01-07T22:31:31.269Z,19271.25
2023-01-07T22:34:00.133Z,19281.41
2023-01-07T22:36:37.662Z,19281.41
2023-01-07T22:39:10.793Z,19271.25
2023-01-07T22:41:39.625Z,19297.66
2023-01-07T22:44:14.022Z,19291.56
2023-01-07T22:46:48.979Z,19305.78
2023-01-07T22:49:17.989Z,19254.97
2023-01-07T22:51:50.017Z,19269.22
2023-01-07T22:54:19.509Z,19275.31
2023-01-07T22:56:48.334Z,19287.50
2023-01-07T22:59:16.662Z,19313.91
2023-01-07T23:01:46.043Z,19326.09
2023-01-07T23:04:14.205Z,19303.75
2023-01-07T23:06:42.309Z,19265.13
2023-01-07T23:09:10.339Z,19295.63
2023-01-07T23:11:50.823Z,19289.53
2023-01-07T23:14:21.756Z,19313.91
2023-01-07T23:16:53.053Z,19330.16
2023-01-07T23:19:23.251Z,19277.34
2023-01-07T23:21:54.554Z,19317.97
2023-01-07T23:24:24.276Z,19297.66
2023-01-07T23:26:54.929Z,19285.47
2023-01-07T23:29:23.546Z,19267.16
2023-01-07T23:31:53.386Z,19285.47
2023-01-07T23:34:21.927Z,19313.91
2023-01-07T23:36:50.081Z,19287.50
2023-01-07T23:39:18.183Z,19309.84
2023-01-07T23:41:46.320Z,19315.94
2023-01-07T23:44:14.627Z,19305.78
2023-01-07T23:46:42.785Z,19289.53
2023-01-07T23:49:12.248Z,19263.09
2023-01-07T23:51:42.095Z,19275.31
2023-01-07T23:54:10.827Z,19232.63
2023-01-07T23:56:39.080Z,19252.94
2023-01-07T23:59:07.498Z,19275.31
